Time;durP1;ratioP1;P1;durP2;ratioP2;P2;SDS_P1;SDS_P2;PMS_P1;PMS_P2;Temp;Humidity;BMP_temperature;BMP_pressure;BME280_temperature;BME280_humidity;BME280_pressure;Samples;Min_cycle;Max_cycle;Signal;HPM_P1;HPM_P2
2023/01/01 00:01:13;;;;;;;18.90;11.18;;;13.80;99.90;;;;;;5082067;28;20075;-66
2023/01/01 00:03:39;;;;;;;32.83;14.20;;;13.80;99.90;;;;;;5084917;28;20040;-67
2023/01/01 00:06:10;;;;;;;31.42;13.00;;;13.90;99.90;;;;;;5085284;28;20047;-64
2023/01/01 00:08:37;;;;;;;20.45;10.63;;;13.80;99.90;;;;;;5087154;28;20100;-64
2023/01/01 00:11:04;;;;;;;26.27;10.43;;;13.80;99.90;;;;;;5087817;28;20043;-64
2023/01/01 00:13:30;;;;;;;24.17;11.77;;;13.80;99.90;;;;;;5086732;28;20055;-64
2023/01/01 00:16:02;;;;;;;32.67;10.38;;;13.70;99.90;;;;;;5073461;28;20040;-65
2023/01/01 00:18:28;;;;;;;16.05;7.88;;;13.70;99.90;;;;;;5083444;28;20101;-66
2023/01/01 00:21:04;;;;;;;25.33;9.25;;;13.60;99.90;;;;;;5087108;28;20035;-64
2023/01/01 00:23:31;;;;;;;23.88;8.15;;;13.50;99.90;;;;;;5085962;28;20036;-64
2023/01/01 00:25:58;;;;;;;18.40;7.75;;;13.40;99.90;;;;;;5086865;28;20044;-64
2023/01/01 00:28:23;;;;;;;20.70;7.93;;;13.40;99.90;;;;;;5084806;28;20410;-64
2023/01/01 00:30:49;;;;;;;10.18;6.25;;;13.40;99.90;;;;;;5085438;28;20044;-64
2023/01/01 00:33:15;;;;;;;21.98;8.38;;;13.30;99.90;;;;;;5084344;28;20067;-68
2023/01/01 00:35:41;;;;;;;18.77;7.75;;;13.30;99.90;;;;;;5083257;28;20348;-64
2023/01/01 00:38:07;;;;;;;21.40;10.30;;;13.20;99.90;;;;;;5084387;28;20036;-67
2023/01/01 00:40:33;;;;;;;10.15;6.43;;;13.20;99.90;;;;;;5083938;28;20054;-64
2023/01/01 00:42:58;;;;;;;27.90;12.23;;;13.20;99.90;;;;;;5086748;28;20044;-74
2023/01/01 00:45:24;;;;;;;21.67;9.82;;;13.10;99.90;;;;;;5085960;28;20047;-63
2023/01/01 00:47:51;;;;;;;24.45;10.63;;;13.10;99.90;;;;;;5083570;28;20118;-64
2023/01/01 00:50:21;;;;;;;27.45;12.90;;;13.00;99.90;;;;;;5085810;28;20482;-64
2023/01/01 00:52:47;;;;;;;34.10;12.55;;;13.00;99.90;;;;;;5086690;28;20050;-64
2023/01/01 00:55:13;;;;;;;18.95;10.30;;;13.00;99.90;;;;;;5089870;28;20464;-64
2023/01/01 00:57:39;;;;;;;31.80;12.85;;;13.00;99.90;;;;;;5087566;28;20140;-64
2023/01/01 01:00:06;;;;;;;27.85;10.77;;;13.00;99.90;;;;;;5088777;28;20110;-64
2023/01/01 01:02:32;;;;;;;26.45;11.70;;;13.00;99.90;;;;;;5083331;28;20128;-64
2023/01/01 01:04:57;;;;;;;19.63;9.75;;;13.00;99.90;;;;;;5089576;28;20118;-64
2023/01/01 01:07:23;;;;;;;28.33;11.50;;;13.00;99.90;;;;;;5089646;28;20048;-64
2023/01/01 01:09:49;;;;;;;18.08;8.23;;;13.10;99.90;;;;;;5087211;28;20044;-64
2023/01/01 01:12:15;;;;;;;21.55;10.18;;;13.10;99.90;;;;;;5089830;28;20040;-64
2023/01/01 01:14:41;;;;;;;36.30;14.48;;;13.10;99.90;;;;;;5086849;28;20070;-64
2023/01/01 01:17:07;;;;;;;23.63;9.85;;;13.10;99.90;;;;;;5090640;28;20043;-64
2023/01/01 01:19:32;;;;;;;17.77;8.48;;;13.10;99.90;;;;;;5083402;28;20048;-63
2023/01/01 01:21:58;;;;;;;22.75;11.05;;;13.10;99.90;;;;;;5088783;28;20048;-64
2023/01/01 01:24:24;;;;;;;25.15;9.25;;;13.10;99.90;;;;;;5089080;28;20046;-82
2023/01/01 01:26:51;;;;;;;27.17;14.05;;;13.10;99.90;;;;;;5088701;28;20048;-64
2023/01/01 01:29:17;;;;;;;21.67;11.15;;;13.20;99.90;;;;;;5091158;28;20048;-64
2023/01/01 01:31:43;;;;;;;28.60;12.77;;;13.20;99.90;;;;;;5078293;28;20589;-64
2023/01/01 01:34:09;;;;;;;23.13;11.90;;;13.20;99.90;;;;;;5089608;28;20078;-65
2023/01/01 01:36:34;;;;;;;25.95;15.20;;;13.20;99.90;;;;;;5088107;28;20048;-64
2023/01/01 01:39:00;;;;;;;30.42;14.63;;;13.10;99.90;;;;;;5090138;28;20394;-64
2023/01/01 01:41:27;;;;;;;34.60;16.00;;;13.00;99.90;;;;;;5089092;28;20040;-65
2023/01/01 01:44:02;;;;;;;40.65;16.17;;;13.00;99.90;;;;;;5084318;28;20117;-64
2023/01/01 01:46:38;;;;;;;34.05;16.27;;;13.00;99.90;;;;;;5087118;28;20047;-64
2023/01/01 01:49:16;;;;;;;35.38;17.17;;;13.00;99.90;;;;;;5084518;28;20436;-65
2023/01/01 01:51:43;;;;;;;32.45;13.30;;;13.00;99.90;;;;;;5086158;28;20048;-70
2023/01/01 01:54:17;;;;;;;21.35;11.05;;;13.10;99.90;;;;;;5087483;28;20409;-84
2023/01/01 01:56:53;;;;;;;16.88;10.50;;;13.10;99.90;;;;;;5086286;28;20048;-81
2023/01/01 01:59:21;;;;;;;30.73;12.95;;;13.20;99.90;;;;;;5087431;28;20052;-66
2023/01/01 02:01:47;;;;;;;35.28;18.50;;;13.20;99.90;;;;;;5084033;28;20044;-64
2023/01/01 02:04:12;;;;;;;29.90;14.20;;;13.10;99.90;;;;;;5087537;28;20422;-64
2023/01/01 02:06:39;;;;;;;31.42;17.27;;;13.10;99.90;;;;;;5085739;28;20398;-64
2023/01/01 02:09:07;;;;;;;30.30;16.42;;;13.00;99.90;;;;;;5089435;28;20039;-64
2023/01/01 02:11:33;;;;;;;34.75;18.50;;;13.00;99.90;;;;;;5089614;28;20390;-64
2023/01/01 02:14:01;;;;;;;32.63;17.55;;;12.90;99.90;;;;;;5089728;28;20516;-83
2023/01/01 02:16:36;;;;;;;37.28;19.50;;;12.90;99.90;;;;;;5071180;28;20056;-64
2023/01/01 02:19:38;;;;;;;33.72;18.77;;;12.90;99.90;;;;;;5072687;28;20033;-65
2023/01/01 02:22:15;;;;;;;41.03;18.98;;;12.70;99.90;;;;;;5087969;28;20084;-66
2023/01/01 02:24:41;;;;;;;30.48;16.13;;;12.70;99.90;;;;;;5079653;28;20062;-68
2023/01/01 02:27:22;;;;;;;47.22;25.27;;;12.70;99.90;;;;;;5077540;28;20132;-65
2023/01/01 02:29:53;;;;;;;47.97;23.83;;;12.70;99.90;;;;;;5088099;28;20086;-75
2023/01/01 02:32:26;;;;;;;37.20;19.27;;;12.60;99.90;;;;;;5081507;28;20395;-64
2023/01/01 02:34:56;;;;;;;36.88;20.17;;;12.60;99.90;;;;;;5088681;28;20398;-65
2023/01/01 02:37:24;;;;;;;43.35;24.20;;;12.60;99.90;;;;;;5088199;28;20096;-74
2023/01/01 02:39:55;;;;;;;38.30;22.40;;;12.50;99.90;;;;;;5083409;28;20056;-64
2023/01/01 02:42:26;;;;;;;51.95;24.13;;;12.50;99.90;;;;;;5089224;28;20119;-65
2023/01/01 02:44:55;;;;;;;37.97;21.42;;;12.50;99.90;;;;;;5083488;28;20108;-77
2023/01/01 02:47:20;;;;;;;23.38;12.60;;;12.50;99.90;;;;;;5088698;28;20063;-64
2023/01/01 02:50:01;;;;;;;46.45;22.27;;;12.50;99.90;;;;;;5085857;28;20043;-68
2023/01/01 02:52:35;;;;;;;24.92;10.98;;;12.50;99.90;;;;;;5088795;28;20048;-64
2023/01/01 02:55:32;;;;;;;50.20;20.73;;;12.50;99.90;;;;;;5081575;28;20446;-64
2023/01/01 03:00:18;;;;;;;33.97;16.05;;;12.50;99.90;;;;;;5063366;28;20052;-64
2023/01/01 03:00:57;;;;;;;19.35;10.13;;;12.50;99.90;;;;;;5079698;28;20411;-64
2023/01/01 03:03:25;;;;;;;35.38;14.80;;;12.50;99.90;;;;;;5068283;28;20044;-64
2023/01/01 03:06:25;;;;;;;32.05;17.52;;;12.50;99.90;;;;;;5067591;28;20510;-64
2023/01/01 03:09:13;;;;;;;34.88;15.98;;;12.50;99.90;;;;;;5088259;28;20056;-64
2023/01/01 03:11:44;;;;;;;28.42;14.77;;;12.50;99.90;;;;;;5074970;28;20050;-65
2023/01/01 03:14:20;;;;;;;25.63;12.23;;;12.60;99.90;;;;;;5074549;28;20080;-64
2023/01/01 03:16:56;;;;;;;33.35;14.52;;;12.60;99.90;;;;;;5087452;28;20048;-64
2023/01/01 03:19:34;;;;;;;25.20;13.43;;;12.60;99.90;;;;;;5073250;28;20095;-65
2023/01/01 03:22:12;;;;;;;40.58;14.77;;;12.70;99.90;;;;;;5088982;28;20136;-64
2023/01/01 03:24:46;;;;;;;34.97;14.60;;;12.70;99.90;;;;;;5087409;28;20044;-64
2023/01/01 03:27:24;;;;;;;21.38;9.57;;;12.70;99.90;;;;;;5085693;28;20202;-63
2023/01/01 03:29:53;;;;;;;26.38;9.48;;;12.70;99.90;;;;;;5085030;28;20414;-78
2023/01/01 03:32:58;;;;;;;25.02;9.45;;;12.80;99.90;;;;;;5086479;28;20044;-64
2023/01/01 03:35:19;;;;;;;40.80;10.90;;;12.80;99.90;;;;;;5083239;28;20372;-64
2023/01/01 03:37:47;;;;;;;20.15;8.52;;;12.70;99.90;;;;;;5077892;28;20089;-63
2023/01/01 03:40:14;;;;;;;16.33;8.68;;;12.70;99.90;;;;;;5088051;28;20039;-64
2023/01/01 03:42:47;;;;;;;30.55;10.63;;;12.60;99.90;;;;;;5078377;28;20483;-66
2023/01/01 03:45:19;;;;;;;27.05;9.65;;;12.50;99.90;;;;;;5069436;28;20510;-63
2023/01/01 03:47:46;;;;;;;31.00;9.57;;;12.40;99.90;;;;;;5087831;28;20085;-63
2023/01/01 03:50:13;;;;;;;26.15;10.57;;;12.30;99.90;;;;;;5082240;28;20099;-64
2023/01/01 03:52:44;;;;;;;17.05;8.10;;;12.20;99.90;;;;;;5080252;28;20055;-64
2023/01/01 03:55:34;;;;;;;15.25;7.32;;;12.10;99.90;;;;;;5069717;28;20509;-63
2023/01/01 03:58:18;;;;;;;23.20;7.05;;;12.10;99.90;;;;;;5076555;28;20371;-63
2023/01/01 04:01:01;;;;;;;24.20;8.60;;;12.00;99.90;;;;;;5085707;28;20151;-63
2023/01/01 04:03:29;;;;;;;25.13;9.82;;;12.10;99.90;;;;;;5066734;28;20593;-64
2023/01/01 04:05:55;;;;;;;18.63;7.18;;;12.00;99.90;;;;;;5086875;28;20044;-65
2023/01/01 04:08:21;;;;;;;24.75;8.63;;;12.00;99.90;;;;;;5087914;28;20490;-63
2023/01/01 04:10:55;;;;;;;28.95;9.95;;;11.90;99.90;;;;;;5072582;28;20398;-63
2023/01/01 04:13:21;;;;;;;18.17;8.20;;;11.90;99.90;;;;;;5087866;28;20093;-64
2023/01/01 04:15:46;;;;;;;20.15;8.27;;;11.80;99.90;;;;;;5072254;28;20459;-63
2023/01/01 04:18:12;;;;;;;23.55;11.45;;;11.80;99.90;;;;;;5080155;28;20441;-64
2023/01/01 04:20:38;;;;;;;18.58;6.63;;;11.70;99.90;;;;;;5074633;28;20051;-63
2023/01/01 04:23:03;;;;;;;17.52;8.38;;;11.70;99.90;;;;;;5082256;28;20554;-64
2023/01/01 04:25:30;;;;;;;10.35;5.72;;;11.70;99.90;;;;;;5067224;28;20036;-64
2023/01/01 04:28:02;;;;;;;27.67;6.82;;;11.70;99.90;;;;;;5082150;28;20066;-63
2023/01/01 04:30:28;;;;;;;17.30;6.40;;;11.70;99.90;;;;;;5084787;28;20087;-66
2023/01/01 04:32:54;;;;;;;10.00;4.10;;;11.70;99.90;;;;;;5079865;28;20047;-68
2023/01/01 04:35:20;;;;;;;16.20;5.00;;;11.70;99.90;;;;;;5076265;28;20040;-63
2023/01/01 04:37:46;;;;;;;13.70;4.90;;;11.70;99.90;;;;;;5071414;28;20060;-63
2023/01/01 04:40:13;;;;;;;11.65;4.13;;;11.80;99.90;;;;;;5073718;28;20040;-64
2023/01/01 04:42:39;;;;;;;17.63;5.15;;;11.80;99.90;;;;;;5073419;28;20052;-64
2023/01/01 04:45:05;;;;;;;8.50;2.70;;;11.80;99.90;;;;;;5085064;28;20036;-82
2023/01/01 04:47:31;;;;;;;16.10;3.80;;;11.80;99.90;;;;;;5076803;28;20056;-63
2023/01/01 04:49:57;;;;;;;15.43;4.07;;;11.80;99.90;;;;;;5081064;28;20177;-63
2023/01/01 04:52:23;;;;;;;12.02;3.67;;;11.80;99.90;;;;;;5085447;28;20131;-86
2023/01/01 04:54:49;;;;;;;16.88;3.83;;;11.80;99.90;;;;;;5071595;28;20077;-63
2023/01/01 04:57:14;;;;;;;16.23;3.75;;;11.80;99.90;;;;;;5087408;28;20044;-63
2023/01/01 04:59:40;;;;;;;18.88;4.32;;;11.80;99.90;;;;;;5079436;28;20493;-63
2023/01/01 05:02:07;;;;;;;21.67;4.72;;;11.80;99.90;;;;;;5078204;28;20414;-68
2023/01/01 05:04:33;;;;;;;18.00;4.25;;;11.80;99.90;;;;;;5086035;28;20054;-63
2023/01/01 05:06:58;;;;;;;15.98;4.30;;;11.80;99.90;;;;;;5085766;28;20032;-83
2023/01/01 05:09:24;;;;;;;9.60;3.00;;;11.80;99.90;;;;;;5083142;28;20516;-63
2023/01/01 05:11:50;;;;;;;18.15;3.80;;;11.70;99.90;;;;;;5086018;28;20402;-79
2023/01/01 05:14:15;;;;;;;15.68;3.60;;;11.70;99.90;;;;;;5087228;28;20087;-87
2023/01/01 05:16:41;;;;;;;22.80;5.20;;;11.70;99.90;;;;;;5086008;28;20063;-63
2023/01/01 05:19:07;;;;;;;14.35;3.30;;;11.70;99.90;;;;;;5085083;28;20523;-63
2023/01/01 05:21:36;;;;;;;16.02;3.15;;;11.70;99.90;;;;;;5066776;28;20040;-85
2023/01/01 05:24:05;;;;;;;11.30;3.88;;;11.70;99.90;;;;;;5065831;28;20575;-63
2023/01/01 05:26:34;;;;;;;15.30;4.05;;;11.70;99.90;;;;;;5085337;28;20110;-63
2023/01/01 05:29:00;;;;;;;8.57;2.55;;;11.70;99.90;;;;;;5085749;28;20416;-63
2023/01/01 05:31:29;;;;;;;16.75;3.63;;;11.70;99.90;;;;;;5085833;28;20035;-63
2023/01/01 05:33:56;;;;;;;7.13;2.75;;;11.60;99.90;;;;;;5085782;28;20036;-63
2023/01/01 05:36:37;;;;;;;10.40;3.03;;;11.60;99.90;;;;;;5086958;28;20087;-63
2023/01/01 05:39:05;;;;;;;7.68;2.35;;;11.70;99.90;;;;;;5079201;28;20518;-63
2023/01/01 05:41:34;;;;;;;11.98;3.13;;;11.70;99.90;;;;;;5083206;28;20510;-63
2023/01/01 05:44:03;;;;;;;5.28;2.03;;;11.70;99.90;;;;;;5079430;28;20059;-64
2023/01/01 05:46:28;;;;;;;9.75;2.17;;;11.70;99.90;;;;;;5074693;28;20044;-63
2023/01/01 05:48:54;;;;;;;16.98;3.15;;;11.80;99.90;;;;;;5083470;28;20055;-63
2023/01/01 05:51:25;;;;;;;15.43;2.58;;;11.80;99.90;;;;;;5081394;28;20490;-63
2023/01/01 05:53:53;;;;;;;8.73;2.80;;;11.90;99.90;;;;;;5076999;28;20481;-64
2023/01/01 05:56:19;;;;;;;11.98;2.88;;;11.90;99.90;;;;;;5076651;28;20131;-64
2023/01/01 05:58:46;;;;;;;12.88;3.10;;;11.90;99.90;;;;;;5088580;28;20131;-63
2023/01/01 06:01:16;;;;;;;9.25;2.58;;;11.90;99.90;;;;;;5078091;28;20044;-64
2023/01/01 06:03:43;;;;;;;7.30;2.58;;;12.00;99.90;;;;;;5088924;28;20055;-69
2023/01/01 06:06:11;;;;;;;11.95;2.45;;;12.00;99.90;;;;;;5089762;28;20089;-68
2023/01/01 06:08:37;;;;;;;16.70;3.05;;;12.00;99.90;;;;;;5088854;28;20410;-63
2023/01/01 06:11:06;;;;;;;13.98;2.17;;;12.00;99.90;;;;;;5086980;28;20047;-63
2023/01/01 06:13:32;;;;;;;14.20;2.55;;;12.00;99.90;;;;;;5090035;28;20048;-63
2023/01/01 06:15:58;;;;;;;6.88;1.65;;;12.00;99.90;;;;;;5078953;28;20062;-63
2023/01/01 06:18:27;;;;;;;5.80;1.75;;;12.00;99.90;;;;;;5083661;28;20040;-64
2023/01/01 06:20:53;;;;;;;15.70;2.28;;;12.00;99.90;;;;;;5087988;28;20074;-63
2023/01/01 06:23:19;;;;;;;6.80;2.33;;;12.10;99.90;;;;;;5089697;28;20048;-74
2023/01/01 06:25:45;;;;;;;8.80;2.33;;;12.00;99.90;;;;;;5088576;28;20032;-63
2023/01/01 06:28:10;;;;;;;7.93;2.08;;;12.00;99.90;;;;;;5085274;28;20052;-66
2023/01/01 06:30:37;;;;;;;6.65;1.45;;;12.00;99.90;;;;;;5084870;28;20047;-64
2023/01/01 06:33:03;;;;;;;11.73;1.88;;;12.00;99.90;;;;;;5088602;28;20047;-63
2023/01/01 06:35:30;;;;;;;7.43;1.60;;;12.00;99.90;;;;;;5079329;28;20076;-64
2023/01/01 06:37:58;;;;;;;8.68;1.73;;;11.90;99.90;;;;;;5070485;28;20469;-65
2023/01/01 06:40:25;;;;;;;6.43;1.90;;;12.00;99.90;;;;;;5088318;28;20044;-63
2023/01/01 06:42:50;;;;;;;4.53;0.93;;;11.90;99.90;;;;;;5087899;28;20044;-64
2023/01/01 06:45:16;;;;;;;10.27;1.83;;;11.90;99.90;;;;;;5089449;28;20082;-63
2023/01/01 06:47:42;;;;;;;8.80;1.35;;;12.00;99.90;;;;;;5080023;28;20044;-63
2023/01/01 06:50:08;;;;;;;9.10;1.40;;;12.00;99.90;;;;;;5082543;28;20052;-63
2023/01/01 06:52:34;;;;;;;9.05;1.42;;;12.00;99.90;;;;;;5067864;28;20052;-63
2023/01/01 06:55:00;;;;;;;4.30;1.05;;;12.00;99.90;;;;;;5068629;28;20075;-63
2023/01/01 06:57:25;;;;;;;4.07;1.00;;;12.00;99.90;;;;;;5087633;28;20040;-67
2023/01/01 06:59:51;;;;;;;7.90;1.42;;;12.00;99.90;;;;;;5067625;28;20051;-63
2023/01/01 07:02:17;;;;;;;5.55;1.05;;;12.00;99.90;;;;;;5080172;28;20040;-63
2023/01/01 07:04:42;;;;;;;5.43;1.05;;;11.90;99.90;;;;;;5075678;28;20071;-63
2023/01/01 07:07:08;;;;;;;3.83;0.85;;;11.90;99.90;;;;;;5087190;28;20043;-65
2023/01/01 07:09:34;;;;;;;5.65;1.33;;;11.80;99.90;;;;;;5080866;28;20371;-63
2023/01/01 07:12:00;;;;;;;6.95;1.58;;;11.80;99.90;;;;;;5074021;28;20112;-64
2023/01/01 07:14:25;;;;;;;10.27;1.50;;;11.80;99.90;;;;;;5085945;28;20047;-63
2023/01/01 07:16:51;;;;;;;7.07;1.17;;;11.80;99.90;;;;;;5076799;28;20046;-65
2023/01/01 07:19:17;;;;;;;5.75;1.05;;;11.80;99.90;;;;;;5083157;28;20489;-63
2023/01/01 07:21:53;;;;;;;4.10;0.77;;;11.80;99.90;;;;;;5085803;28;20048;-63
2023/01/01 07:24:20;;;;;;;6.88;0.95;;;11.70;99.90;;;;;;5088588;28;20048;-64
2023/01/01 07:26:47;;;;;;;5.45;0.60;;;11.70;99.90;;;;;;5078695;28;20140;-63
2023/01/01 07:29:13;;;;;;;2.63;0.80;;;11.70;99.90;;;;;;5069115;28;20056;-64
2023/01/01 07:31:40;;;;;;;3.03;0.57;;;11.70;99.90;;;;;;5085899;28;20050;-63
2023/01/01 07:34:09;;;;;;;10.63;1.70;;;11.70;99.90;;;;;;5086758;28;20101;-63
2023/01/01 07:36:35;;;;;;;8.00;1.27;;;11.70;99.90;;;;;;5074095;28;20039;-64
2023/01/01 07:39:01;;;;;;;10.55;1.58;;;11.70;99.90;;;;;;5085671;28;20138;-63
2023/01/01 07:41:27;;;;;;;7.60;1.42;;;11.60;99.90;;;;;;5087641;28;20082;-63
2023/01/01 07:43:52;;;;;;;14.40;2.47;;;11.60;99.90;;;;;;5078896;28;20449;-63
2023/01/01 07:46:18;;;;;;;11.45;1.52;;;11.60;99.90;;;;;;5066364;28;20127;-64
2023/01/01 07:48:44;;;;;;;9.60;1.38;;;11.60;99.90;;;;;;5088423;28;20036;-64
2023/01/01 07:51:10;;;;;;;12.88;2.25;;;11.60;99.90;;;;;;5074742;28;20117;-64
2023/01/01 07:53:35;;;;;;;14.40;2.70;;;11.60;99.90;;;;;;5083790;28;20467;-63
2023/01/01 07:56:01;;;;;;;16.88;1.63;;;11.50;99.90;;;;;;5085989;28;20139;-64
2023/01/01 07:58:27;;;;;;;11.88;2.13;;;11.50;99.90;;;;;;5087460;28;20093;-64
2023/01/01 08:00:53;;;;;;;14.30;2.60;;;11.40;99.90;;;;;;5084320;28;20068;-88
2023/01/01 08:03:18;;;;;;;19.38;2.30;;;11.40;99.90;;;;;;5083379;28;20097;-63
2023/01/01 08:05:44;;;;;;;20.83;2.45;;;11.40;99.90;;;;;;5077483;28;20109;-63
2023/01/01 08:08:10;;;;;;;14.10;2.60;;;11.40;99.90;;;;;;5079757;28;20043;-64
2023/01/01 08:10:37;;;;;;;18.33;2.50;;;11.30;99.90;;;;;;5087075;28;20048;-66
2023/01/01 08:13:05;;;;;;;14.18;2.00;;;11.30;99.90;;;;;;5079295;28;20043;-63
2023/01/01 08:15:31;;;;;;;23.63;2.53;;;11.30;99.90;;;;;;5081346;28;20070;-63
2023/01/01 08:17:59;;;;;;;6.47;1.33;;;11.30;99.90;;;;;;5086090;28;20043;-64
2023/01/01 08:20:26;;;;;;;21.77;2.90;;;11.30;99.90;;;;;;5087413;28;20694;-64
2023/01/01 08:22:52;;;;;;;21.05;2.65;;;11.30;99.90;;;;;;5086608;28;20040;-68
2023/01/01 08:25:18;;;;;;;16.40;2.28;;;11.30;99.90;;;;;;5075535;28;20048;-64
2023/01/01 08:27:44;;;;;;;15.00;3.17;;;11.30;99.90;;;;;;5068898;28;20052;-63
2023/01/01 08:30:12;;;;;;;20.88;3.55;;;11.30;99.90;;;;;;5084982;28;20076;-64
2023/01/01 08:32:38;;;;;;;8.90;1.58;;;11.30;99.90;;;;;;5081501;28;20079;-64
2023/01/01 08:35:04;;;;;;;21.25;2.70;;;11.30;99.90;;;;;;5085934;28;20479;-69
2023/01/01 08:37:30;;;;;;;21.77;3.40;;;11.30;99.90;;;;;;5087396;28;20409;-64
2023/01/01 08:39:55;;;;;;;23.45;3.13;;;11.30;99.90;;;;;;5068415;28;20052;-65
2023/01/01 08:42:21;;;;;;;17.83;1.33;;;11.40;99.90;;;;;;5077564;28;20439;-63
2023/01/01 08:44:47;;;;;;;14.65;3.03;;;11.40;99.90;;;;;;5085927;28;20036;-64
2023/01/01 08:47:22;;;;;;;20.45;3.28;;;11.40;99.90;;;;;;5083887;28;20059;-64
2023/01/01 08:49:48;;;;;;;14.23;3.17;;;11.40;99.90;;;;;;5073084;28;20044;-64
2023/01/01 08:52:14;;;;;;;14.30;2.75;;;11.40;99.90;;;;;;5086338;28;20044;-73
2023/01/01 08:54:40;;;;;;;20.55;3.40;;;11.40;99.90;;;;;;5069695;28;20106;-64
2023/01/01 08:57:06;;;;;;;19.35;3.13;;;11.40;99.90;;;;;;5085510;28;20083;-63
2023/01/01 08:59:32;;;;;;;22.42;3.13;;;11.40;99.90;;;;;;5083399;28;20051;-67
2023/01/01 09:01:58;;;;;;;18.15;2.78;;;11.40;99.90;;;;;;5084185;28;20090;-63
2023/01/01 09:04:25;;;;;;;16.45;2.45;;;11.40;99.90;;;;;;5083345;28;20052;-64
2023/01/01 09:06:50;;;;;;;20.45;3.13;;;11.40;99.90;;;;;;5084029;28;20052;-72
2023/01/01 09:09:16;;;;;;;23.75;3.85;;;11.50;99.90;;;;;;5085161;28;20042;-64
2023/01/01 09:11:53;;;;;;;10.75;1.52;;;11.50;99.90;;;;;;5080516;28;20123;-63
2023/01/01 09:14:19;;;;;;;19.90;3.22;;;11.40;99.90;;;;;;5073366;28;20036;-64
2023/01/01 09:16:45;;;;;;;17.25;2.55;;;11.40;99.90;;;;;;5089737;28;20837;-68
2023/01/01 09:19:11;;;;;;;13.70;1.83;;;11.40;99.90;;;;;;5086558;28;20050;-68
2023/01/01 09:21:37;;;;;;;14.65;2.63;;;11.40;99.90;;;;;;5089442;28;20100;-64
2023/01/01 09:24:03;;;;;;;12.82;1.95;;;11.40;99.90;;;;;;5086050;28;20150;-63
2023/01/01 09:26:29;;;;;;;23.60;4.15;;;11.40;99.90;;;;;;5086795;28;20135;-64
2023/01/01 09:28:55;;;;;;;16.23;2.58;;;11.50;99.90;;;;;;5089913;28;20405;-74
2023/01/01 09:31:20;;;;;;;20.77;2.75;;;11.50;99.90;;;;;;5085221;28;20537;-83
2023/01/01 09:33:46;;;;;;;9.63;1.55;;;11.50;99.90;;;;;;5087519;28;20043;-63
2023/01/01 09:36:29;;;;;;;22.80;3.00;;;11.40;99.90;;;;;;5085459;28;20059;-64
2023/01/01 09:38:56;;;;;;;21.60;2.83;;;11.50;99.90;;;;;;5087567;28;20040;-64
2023/01/01 09:41:25;;;;;;;22.80;4.00;;;11.50;99.90;;;;;;5085660;28;20044;-64
2023/01/01 09:44:21;;;;;;;20.38;3.80;;;11.50;99.90;;;;;;5079096;28;20047;-64
2023/01/01 09:46:47;;;;;;;28.83;3.35;;;11.50;99.90;;;;;;5088472;28;20401;-64
2023/01/01 09:49:31;;;;;;;18.20;2.40;;;11.40;99.90;;;;;;5090376;28;20044;-70
2023/01/01 09:52:00;;;;;;;29.15;3.90;;;11.50;99.90;;;;;;5080639;28;20048;-64
2023/01/01 09:54:39;;;;;;;31.67;3.22;;;11.50;99.90;;;;;;5090353;28;20039;-64
2023/01/01 09:57:10;;;;;;;30.70;3.80;;;11.50;99.90;;;;;;5075663;28;20044;-64
2023/01/01 09:59:36;;;;;;;21.88;3.92;;;11.50;99.90;;;;;;5090428;28;20577;-64
2023/01/01 10:02:32;;;;;;;17.60;2.53;;;11.60;99.90;;;;;;5089557;28;20733;-64
2023/01/01 10:05:17;;;;;;;18.77;2.70;;;11.60;99.90;;;;;;5080892;28;20803;-64
2023/01/01 10:07:48;;;;;;;23.70;3.15;;;11.60;99.90;;;;;;5086090;28;20098;-64
2023/01/01 10:10:39;;;;;;;19.10;2.95;;;11.70;99.90;;;;;;5082932;28;20409;-66
2023/01/01 10:13:36;;;;;;;18.08;2.97;;;11.70;99.90;;;;;;5079347;28;20040;-84
2023/01/01 10:16:20;;;;;;;17.02;2.40;;;11.70;99.90;;;;;;5063751;28;20138;-81
2023/01/01 10:18:50;;;;;;;19.58;2.78;;;11.80;99.90;;;;;;5082355;28;20071;-63
2023/01/01 10:21:36;;;;;;;24.70;3.30;;;11.80;99.90;;;;;;5084256;28;20049;-63
2023/01/01 10:24:28;;;;;;;18.23;3.15;;;11.80;99.90;;;;;;5081991;28;20126;-63
2023/01/01 10:26:55;;;;;;;23.67;3.55;;;11.90;99.90;;;;;;5083251;28;20090;-63
2023/01/01 10:29:37;;;;;;;15.93;2.80;;;12.00;99.90;;;;;;5086517;28;20056;-63
2023/01/01 10:32:17;;;;;;;19.70;2.97;;;12.00;99.90;;;;;;5085685;28;20444;-64
2023/01/01 10:34:42;;;;;;;18.75;2.85;;;12.00;99.90;;;;;;5086571;28;20063;-65
2023/01/01 10:37:09;;;;;;;14.30;2.42;;;12.00;99.90;;;;;;5087505;28;20036;-63
2023/01/01 10:39:35;;;;;;;17.73;2.75;;;12.00;99.90;;;;;;5085552;28;20089;-63
2023/01/01 10:42:02;;;;;;;6.03;1.55;;;12.00;99.90;;;;;;5088733;28;20444;-63
2023/01/01 10:44:31;;;;;;;12.57;2.28;;;12.00;99.90;;;;;;5085234;28;20040;-64
2023/01/01 10:47:03;;;;;;;14.40;2.00;;;12.00;99.90;;;;;;5084352;28;20040;-66
2023/01/01 10:49:28;;;;;;;29.08;3.65;;;11.90;99.90;;;;;;5088124;28;20065;-64
2023/01/01 10:51:54;;;;;;;14.52;2.20;;;11.90;99.90;;;;;;5086785;28;20039;-63
2023/01/01 10:54:37;;;;;;;28.00;4.05;;;11.80;99.90;;;;;;5083923;28;20032;-63
2023/01/01 10:57:18;;;;;;;24.65;3.47;;;11.80;99.90;;;;;;5078765;28;20152;-63
2023/01/01 10:59:44;;;;;;;11.95;1.45;;;11.80;99.90;;;;;;5084436;28;20730;-73
2023/01/01 11:02:25;;;;;;;16.15;2.47;;;11.70;99.90;;;;;;5074685;28;20048;-63
2023/01/01 11:05:07;;;;;;;26.02;2.95;;;11.70;99.90;;;;;;5083831;28;20097;-66
2023/01/01 11:07:34;;;;;;;23.95;3.30;;;11.70;99.90;;;;;;5081856;28;20164;-64
2023/01/01 11:10:02;;;;;;;20.75;3.28;;;11.80;99.90;;;;;;5064752;28;20621;-64
2023/01/01 11:12:32;;;;;;;18.33;2.65;;;11.80;99.90;;;;;;5088764;28;20043;-64
2023/01/01 11:14:58;;;;;;;;;;;11.80;99.90;;;;;;5087488;28;20106;-63
2023/01/01 11:17:36;;;;;;;14.02;1.65;;;11.80;99.90;;;;;;5086853;28;20390;-63
2023/01/01 11:20:04;;;;;;;17.05;2.38;;;11.70;99.90;;;;;;5083198;28;20501;-77
2023/01/01 11:22:49;;;;;;;23.50;3.17;;;11.70;99.90;;;;;;5084961;28;20040;-74
2023/01/01 11:25:21;;;;;;;10.55;1.98;;;11.70;99.90;;;;;;5086352;28;20485;-63
2023/01/01 11:27:48;;;;;;;18.15;1.52;;;11.70;99.90;;;;;;5083390;28;20514;-63
2023/01/01 11:30:26;;;;;;;12.65;2.50;;;11.70;99.90;;;;;;5085089;28;20048;-64
2023/01/01 11:33:01;;;;;;;6.35;1.05;;;11.70;99.90;;;;;;5083048;28;20501;-63
2023/01/01 11:35:30;;;;;;;10.75;1.55;;;11.70;99.90;;;;;;5083532;28;20577;-78
2023/01/01 11:37:58;;;;;;;18.50;2.08;;;11.80;99.90;;;;;;5085310;28;20490;-64
2023/01/01 11:40:43;;;;;;;16.05;2.47;;;11.90;99.90;;;;;;5085098;28;20044;-63
2023/01/01 11:43:19;;;;;;;5.03;1.00;;;11.80;99.90;;;;;;5087386;28;20059;-63
2023/01/01 11:45:46;;;;;;;8.77;1.70;;;11.80;99.90;;;;;;5084848;28;20118;-63
2023/01/01 11:48:19;;;;;;;13.63;2.40;;;11.80;99.90;;;;;;5081361;28;20048;-63
2023/01/01 11:50:54;;;;;;;9.93;1.70;;;11.80;99.90;;;;;;5085354;28;20194;-63
2023/01/01 11:53:26;;;;;;;22.60;1.80;;;11.80;99.90;;;;;;5078829;28;20047;-67
2023/01/01 11:56:01;;;;;;;12.63;1.92;;;11.80;99.90;;;;;;5081041;28;20044;-65
2023/01/01 11:58:45;;;;;;;13.43;1.90;;;11.80;99.90;;;;;;5084762;28;20044;-66
2023/01/01 12:01:32;;;;;;;15.13;2.20;;;11.80;99.90;;;;;;5080780;28;20424;-64
2023/01/01 12:04:13;;;;;;;17.92;2.58;;;11.80;99.90;;;;;;5085492;28;20845;-64
2023/01/01 12:06:58;;;;;;;16.75;2.63;;;11.90;99.90;;;;;;5079266;28;20059;-63
2023/01/01 12:09:52;;;;;;;17.05;2.72;;;12.00;99.90;;;;;;5075321;28;20055;-63
2023/01/01 12:12:25;;;;;;;8.25;2.10;;;12.00;99.90;;;;;;5087423;28;20063;-63
2023/01/01 12:14:55;;;;;;;23.27;2.70;;;12.10;99.90;;;;;;5085241;28;20390;-64
2023/01/01 12:17:40;;;;;;;8.18;2.00;;;12.10;99.90;;;;;;5084796;28;20056;-63
2023/01/01 12:20:11;;;;;;;16.60;2.20;;;12.10;99.90;;;;;;5080509;28;20055;-63
2023/01/01 12:22:38;;;;;;;16.10;2.13;;;12.20;99.90;;;;;;5069922;28;20085;-63
2023/01/01 12:25:05;;;;;;;16.13;2.13;;;12.20;99.90;;;;;;5085799;28;20079;-64
2023/01/01 12:27:47;;;;;;;17.83;2.67;;;12.20;99.90;;;;;;5083980;28;20073;-63
2023/01/01 12:30:50;;;;;;;25.67;2.70;;;12.20;99.90;;;;;;5085653;28;20763;-64
2023/01/01 12:33:19;;;;;;;17.17;2.53;;;12.20;99.90;;;;;;5089027;28;20520;-64
2023/01/01 12:36:12;;;;;;;22.40;2.85;;;12.20;99.90;;;;;;5085635;28;21415;-64
2023/01/01 12:38:43;;;;;;;22.70;3.40;;;12.10;99.90;;;;;;5078647;28;20528;-64
2023/01/01 12:41:47;;;;;;;18.17;3.15;;;12.10;99.90;;;;;;5079593;28;20087;-63
2023/01/01 12:44:29;;;;;;;23.90;4.05;;;12.10;99.90;;;;;;5082164;28;20059;-63
2023/01/01 12:47:23;;;;;;;5.80;1.40;;;12.10;99.90;;;;;;5085734;28;20174;-64
2023/01/01 12:50:03;;;;;;;21.63;3.35;;;12.10;99.90;;;;;;5086361;28;20043;-63
2023/01/01 12:52:48;;;;;;;18.85;2.50;;;12.20;99.90;;;;;;5085645;28;20040;-64